Time;durP1;ratioP1;P1;durP2;ratioP2;P2;SDS_P1;SDS_P2;PMS_P1;PMS_P2;Temp;Humidity;BMP_temperature;BMP_pressure;BME280_temperature;BME280_humidity;BME280_pressure;Samples;Min_cycle;Max_cycle;Signal;HPM_P1;HPM_P2
2022/09/05 00:00:57;;;;;;;9.80;5.57;;;;;;;;;;4934368;29;20054;-85
2022/09/05 00:03:44;;;;;;;7.47;5.50;;;;;;;;;;4935731;29;20111;-85
2022/09/05 00:06:12;;;;;;;6.00;5.40;;;;;;;;;;4950642;29;20047;-85
2022/09/05 00:08:54;;;;;;;5.90;5.40;;;;;;;;;;4954008;28;20058;-85
2022/09/05 00:11:39;;;;;;;6.10;5.03;;;;;;;;;;4954028;28;20055;-86
2022/09/05 00:14:23;;;;;;;6.20;5.60;;;;;;;;;;4952656;28;20508;-85
2022/09/05 00:17:04;;;;;;;6.40;5.80;;;;;;;;;;4953914;28;20055;-84
2022/09/05 00:19:43;;;;;;;9.38;5.95;;;;;;;;;;4952832;29;20050;-85
2022/09/05 00:22:18;;;;;;;8.43;5.70;;;;;;;;;;4953329;28;20602;-85
2022/09/05 00:24:47;;;;;;;6.47;5.37;;;;;;;;;;4954432;28;20499;-85
2022/09/05 00:27:17;;;;;;;9.20;6.38;;;;;;;;;;4953670;28;20110;-85
2022/09/05 00:29:59;;;;;;;9.80;5.63;;;;;;;;;;4953209;28;20126;-85
2022/09/05 00:32:32;;;;;;;6.65;5.60;;;;;;;;;;4953960;29;20048;-85
2022/09/05 00:35:17;;;;;;;6.57;5.75;;;;;;;;;;4953610;29;20043;-85
2022/09/05 00:37:46;;;;;;;8.18;5.68;;;;;;;;;;4951754;29;20619;-85
2022/09/05 00:40:12;;;;;;;6.13;5.55;;;;;;;;;;4952513;29;20043;-85
2022/09/05 00:42:38;;;;;;;6.10;5.50;;;;;;;;;;4954087;28;20051;-84
2022/09/05 00:45:05;;;;;;;7.65;5.60;;;;;;;;;;4953166;28;20090;-85
2022/09/05 00:47:32;;;;;;;6.70;5.93;;;;;;;;;;4952635;28;20051;-85
2022/09/05 00:50:21;;;;;;;7.05;6.03;;;;;;;;;;4953176;29;20518;-85
2022/09/05 00:52:56;;;;;;;7.82;6.40;;;;;;;;;;4952687;28;20076;-85
2022/09/05 00:55:33;;;;;;;6.82;6.13;;;;;;;;;;4952410;29;20055;-85
2022/09/05 00:58:18;;;;;;;7.30;6.20;;;;;;;;;;4951863;29;20427;-85
2022/09/05 01:00:54;;;;;;;7.32;6.60;;;;;;;;;;4953189;29;20484;-85
2022/09/05 01:03:50;;;;;;;7.18;6.45;;;;;;;;;;4953390;28;20488;-85
2022/09/05 01:06:19;;;;;;;7.50;6.32;;;;;;;;;;4911634;29;20444;-85
2022/09/05 01:08:48;;;;;;;7.47;6.55;;;;;;;;;;4912882;29;20127;-85
2022/09/05 01:11:31;;;;;;;8.65;7.05;;;;;;;;;;4911967;29;20063;-86
2022/09/05 01:13:57;;;;;;;7.50;6.72;;;;;;;;;;4911928;29;20055;-85
2022/09/05 01:16:43;;;;;;;8.07;6.72;;;;;;;;;;4896959;29;20056;-85
2022/09/05 01:19:12;;;;;;;7.40;6.47;;;;;;;;;;4898880;29;20060;-85
2022/09/05 01:22:04;;;;;;;7.75;6.80;;;;;;;;;;4914810;29;20139;-85
2022/09/05 01:24:42;;;;;;;7.40;6.43;;;;;;;;;;4896497;29;20058;-85
2022/09/05 01:27:26;;;;;;;7.55;6.85;;;;;;;;;;4896603;29;20169;-85
2022/09/05 01:29:57;;;;;;;7.18;6.47;;;;;;;;;;4899477;29;20514;-85
2022/09/05 01:32:31;;;;;;;7.28;6.47;;;;;;;;;;4895169;29;20045;-85
2022/09/05 01:35:16;;;;;;;7.82;6.40;;;;;;;;;;4877828;29;20060;-84
2022/09/05 01:38:05;;;;;;;7.75;6.95;;;;;;;;;;4893689;29;20120;-85
2022/09/05 01:40:34;;;;;;;7.95;6.75;;;;;;;;;;4910414;29;20052;-85
2022/09/05 01:43:03;;;;;;;7.75;6.82;;;;;;;;;;4910954;29;20070;-85
2022/09/05 01:45:47;;;;;;;7.68;6.97;;;;;;;;;;4933567;29;20055;-85
2022/09/05 01:48:13;;;;;;;7.60;6.90;;;;;;;;;;4946179;29;20047;-85
2022/09/05 01:50:43;;;;;;;7.40;6.75;;;;;;;;;;4952465;28;20066;-85
2022/09/05 01:53:32;;;;;;;8.05;7.25;;;;;;;;;;4951953;28;20126;-85
2022/09/05 01:56:04;;;;;;;7.40;6.70;;;;;;;;;;4952474;28;20047;-84
2022/09/05 01:58:49;;;;;;;7.97;7.28;;;;;;;;;;4934522;29;20122;-85
2022/09/05 02:01:31;;;;;;;8.45;7.70;;;;;;;;;;4952024;29;20047;-85
2022/09/05 02:03:57;;;;;;;8.60;7.80;;;;;;;;;;4933470;29;20060;-85
2022/09/05 02:06:23;;;;;;;8.80;7.90;;;;;;;;;;4932946;29;20197;-85
2022/09/05 02:08:53;;;;;;;10.48;7.90;;;;;;;;;;4947468;29;20066;-85
2022/09/05 02:11:36;;;;;;;10.00;8.13;;;;;;;;;;4951737;28;20503;-85
2022/09/05 02:14:09;;;;;;;8.70;7.78;;;;;;;;;;4951881;28;20347;-85
2022/09/05 02:16:38;;;;;;;8.57;7.80;;;;;;;;;;4951861;29;20111;-85
2022/09/05 02:19:08;;;;;;;10.63;8.68;;;;;;;;;;4950488;28;20066;-85
2022/09/05 02:21:37;;;;;;;8.45;7.65;;;;;;;;;;4952176;28;20043;-85
2022/09/05 02:24:20;;;;;;;8.70;7.90;;;;;;;;;;4951629;28;20043;-85
2022/09/05 02:26:52;;;;;;;8.93;7.97;;;;;;;;;;4950353;28;20051;-85
2022/09/05 02:29:26;;;;;;;9.07;8.18;;;;;;;;;;4951745;28;20043;-85
2022/09/05 02:31:57;;;;;;;9.10;8.20;;;;;;;;;;4949435;28;20122;-86
2022/09/05 02:34:42;;;;;;;9.77;8.88;;;;;;;;;;4952019;28;20110;-85
2022/09/05 02:37:18;;;;;;;8.93;8.10;;;;;;;;;;4951247;28;20047;-85
2022/09/05 02:39:44;;;;;;;;;;;;;;;;;;4950687;29;20126;-85
2022/09/05 02:42:13;;;;;;;8.95;8.10;;;;;;;;;;4951751;29;20073;-86
2022/09/05 02:44:54;;;;;;;9.38;8.50;;;;;;;;;;4951964;29;20353;-86
2022/09/05 02:47:39;;;;;;;10.23;9.18;;;;;;;;;;4951091;29;20051;-85
2022/09/05 02:50:05;;;;;;;9.30;8.35;;;;;;;;;;4950330;28;20126;-86
2022/09/05 02:52:32;;;;;;;10.15;8.18;;;;;;;;;;4950598;29;20126;-85
2022/09/05 02:54:58;;;;;;;10.25;8.68;;;;;;;;;;4951033;28;20049;-85
2022/09/05 02:57:38;;;;;;;10.40;8.88;;;;;;;;;;4949829;29;20045;-85
2022/09/05 03:00:08;;;;;;;8.95;8.05;;;;;;;;;;4949664;29;20134;-84
2022/09/05 03:02:40;;;;;;;11.88;9.18;;;;;;;;;;4951812;28;20058;-85
2022/09/05 03:05:06;;;;;;;9.65;8.50;;;;;;;;;;4951238;28;20051;-85
2022/09/05 03:07:41;;;;;;;9.45;8.50;;;;;;;;;;4951652;28;20051;-85
2022/09/05 03:10:26;;;;;;;10.82;9.73;;;;;;;;;;4950875;28;20051;-85
2022/09/05 03:13:11;;;;;;;11.63;9.20;;;;;;;;;;4931265;29;20072;-86
2022/09/05 03:15:37;;;;;;;9.68;8.77;;;;;;;;;;4931150;29;20052;-84
2022/09/05 03:18:03;;;;;;;10.30;9.30;;;;;;;;;;4930917;29;20134;-85
2022/09/05 03:20:50;;;;;;;10.60;9.55;;;;;;;;;;4947128;29;20058;-85
2022/09/05 03:23:43;;;;;;;10.13;9.13;;;;;;;;;;4940590;29;20066;-85
2022/09/05 03:26:28;;;;;;;11.13;8.60;;;;;;;;;;4950557;29;20420;-85
2022/09/05 03:29:05;;;;;;;9.95;8.95;;;;;;;;;;4954819;28;20121;-85
2022/09/05 03:31:38;;;;;;;10.45;9.40;;;;;;;;;;4956294;28;20114;-84
2022/09/05 03:34:07;;;;;;;10.18;9.15;;;;;;;;;;4936288;29;20051;-85
2022/09/05 03:36:42;;;;;;;10.40;9.30;;;;;;;;;;4951375;29;20202;-85
2022/09/05 03:39:26;;;;;;;10.82;9.77;;;;;;;;;;4953089;28;20126;-85
2022/09/05 03:41:58;;;;;;;11.00;9.70;;;;;;;;;;4952725;29;20126;-86
2022/09/05 03:44:49;;;;;;;10.55;9.45;;;;;;;;;;4951481;28;20087;-86
2022/09/05 03:47:53;;;;;;;10.52;9.55;;;;;;;;;;4932275;29;20047;-85
2022/09/05 03:50:35;;;;;;;12.20;9.70;;;;;;;;;;4899090;29;20445;-85
2022/09/05 03:53:11;;;;;;;11.45;10.27;;;;;;;;;;4906815;29;20087;-85
2022/09/05 03:55:46;;;;;;;10.65;9.60;;;;;;;;;;4898885;29;20111;-85
2022/09/05 03:58:24;;;;;;;11.00;9.50;;;;;;;;;;4914436;29;20044;-85
2022/09/05 04:01:02;;;;;;;10.40;9.27;;;;;;;;;;4906262;29;20063;-85
2022/09/05 04:03:54;;;;;;;10.20;9.23;;;;;;;;;;4913596;29;20127;-85
2022/09/05 04:06:32;;;;;;;10.88;9.73;;;;;;;;;;4895673;29;20063;-85
2022/09/05 04:09:04;;;;;;;11.20;10.10;;;;;;;;;;4913659;29;20485;-85
2022/09/05 04:11:30;;;;;;;11.48;10.27;;;;;;;;;;4914036;29;20047;-85
2022/09/05 04:13:56;;;;;;;12.02;10.45;;;;;;;;;;4897740;29;20068;-85
2022/09/05 04:16:28;;;;;;;10.60;9.50;;;;;;;;;;4913150;29;20064;-85
2022/09/05 04:19:06;;;;;;;11.45;10.32;;;;;;;;;;4897852;29;20135;-85
2022/09/05 04:21:35;;;;;;;10.93;9.93;;;;;;;;;;4927969;29;20326;-85
2022/09/05 04:24:01;;;;;;;11.45;10.18;;;;;;;;;;4951024;29;20543;-85
2022/09/05 04:26:30;;;;;;;12.93;10.52;;;;;;;;;;4954034;28;20086;-85
2022/09/05 04:29:01;;;;;;;12.52;10.48;;;;;;;;;;4953258;28;20047;-85
2022/09/05 04:31:46;;;;;;;11.20;9.82;;;;;;;;;;4953306;28;20044;-85
2022/09/05 04:34:30;;;;;;;11.43;10.32;;;;;;;;;;4953824;28;20058;-85
2022/09/05 04:37:07;;;;;;;11.40;10.30;;;;;;;;;;4953136;29;20098;-86
2022/09/05 04:39:34;;;;;;;12.13;10.98;;;;;;;;;;4952525;28;20052;-85
2022/09/05 04:42:20;;;;;;;12.48;10.13;;;;;;;;;;4953375;28;20485;-85
2022/09/05 04:44:49;;;;;;;11.45;10.25;;;;;;;;;;4953358;28;21560;-85
2022/09/05 04:47:21;;;;;;;11.40;10.27;;;;;;;;;;4953554;28;20122;-85
2022/09/05 04:49:51;;;;;;;11.90;10.70;;;;;;;;;;4952447;29;20083;-85
2022/09/05 04:52:23;;;;;;;12.20;10.75;;;;;;;;;;4953191;29;20097;-85
2022/09/05 04:54:52;;;;;;;11.38;10.27;;;;;;;;;;4953860;29;20051;-86
2022/09/05 04:57:21;;;;;;;12.00;10.77;;;;;;;;;;4953591;29;20043;-85
2022/09/05 04:59:51;;;;;;;12.45;11.07;;;;;;;;;;4951377;28;20051;-85
2022/09/05 05:02:37;;;;;;;12.50;10.73;;;;;;;;;;4953494;28;20043;-85
2022/09/05 05:05:06;;;;;;;12.18;10.68;;;;;;;;;;4952293;28;20493;-85
2022/09/05 05:07:32;;;;;;;12.10;10.75;;;;;;;;;;4953350;28;20115;-85
2022/09/05 05:10:01;;;;;;;11.85;10.73;;;;;;;;;;4967789;28;20047;-85
2022/09/05 05:12:50;;;;;;;11.48;10.30;;;;;;;;;;4953529;28;20082;-85
2022/09/05 05:15:20;;;;;;;11.75;10.55;;;;;;;;;;4952264;28;20047;-85
2022/09/05 05:17:52;;;;;;;11.27;10.18;;;;;;;;;;4968414;28;20051;-86
2022/09/05 05:20:23;;;;;;;12.10;9.88;;;;;;;;;;4935453;29;20078;-85
2022/09/05 05:23:07;;;;;;;11.85;10.55;;;;;;;;;;4952951;29;20051;-85
2022/09/05 05:25:40;;;;;;;11.52;10.43;;;;;;;;;;4951736;29;20419;-85
2022/09/05 05:28:13;;;;;;;11.60;10.38;;;;;;;;;;4951528;29;20047;-86
2022/09/05 05:30:39;;;;;;;12.50;10.20;;;;;;;;;;4952365;28;20197;-85
2022/09/05 05:33:26;;;;;;;12.05;10.02;;;;;;;;;;4952618;28;20105;-85
2022/09/05 05:35:54;;;;;;;15.95;11.02;;;;;;;;;;4950950;28;20059;-85
2022/09/05 05:38:25;;;;;;;11.98;10.77;;;;;;;;;;4955470;28;20178;-85
2022/09/05 05:41:00;;;;;;;11.90;10.70;;;;;;;;;;4953591;29;20420;-84
2022/09/05 05:43:33;;;;;;;10.68;9.57;;;;;;;;;;4952381;28;20039;-85
2022/09/05 05:46:00;;;;;;;11.73;10.55;;;;;;;;;;4952598;28;20054;-84
2022/09/05 05:48:35;;;;;;;12.20;11.00;;;;;;;;;;4954448;28;20054;-85
2022/09/05 05:51:14;;;;;;;11.73;10.60;;;;;;;;;;4953980;28;20057;-84
2022/09/05 05:53:58;;;;;;;11.93;10.60;;;;;;;;;;4952956;29;20058;-85
2022/09/05 05:56:24;;;;;;;14.82;10.40;;;;;;;;;;4953080;28;20040;-85
2022/09/05 05:59:10;;;;;;;11.93;10.50;;;;;;;;;;4950069;29;20047;-85
2022/09/05 06:01:54;;;;;;;11.07;9.98;;;;;;;;;;4951169;29;20102;-85
2022/09/05 06:04:23;;;;;;;12.50;10.23;;;;;;;;;;4950741;29;20132;-85
2022/09/05 06:06:58;;;;;;;10.85;9.75;;;;;;;;;;4950587;29;20077;-85
2022/09/05 06:09:24;;;;;;;11.43;10.32;;;;;;;;;;4935083;28;20097;-86
2022/09/05 06:12:10;;;;;;;11.73;10.48;;;;;;;;;;4949803;29;20086;-85
2022/09/05 06:14:58;;;;;;;12.63;11.02;;;;;;;;;;4950979;28;20059;-85
2022/09/05 06:17:43;;;;;;;12.75;11.38;;;;;;;;;;4950837;28;20090;-85
2022/09/05 06:20:19;;;;;;;12.70;11.45;;;;;;;;;;4949961;29;20043;-85
2022/09/05 06:23:05;;;;;;;20.98;12.30;;;;;;;;;;4966988;28;20043;-85
2022/09/05 06:25:34;;;;;;;17.75;12.77;;;;;;;;;;4952356;28;20099;-84
2022/09/05 06:28:16;;;;;;;17.48;13.68;;;;;;;;;;4951602;28;20105;-84
2022/09/05 06:30:49;;;;;;;13.50;12.13;;;;;;;;;;4950924;28;20039;-89
2022/09/05 06:33:19;;;;;;;13.15;11.30;;;;;;;;;;4934064;29;20507;-84
2022/09/05 06:35:54;;;;;;;12.63;11.43;;;;;;;;;;4951860;28;20496;-84
2022/09/05 06:38:48;;;;;;;12.15;10.90;;;;;;;;;;4951137;29;20047;-83
2022/09/05 06:41:20;;;;;;;13.40;10.38;;;;;;;;;;4951212;28;20143;-82
2022/09/05 06:43:50;;;;;;;11.82;10.70;;;;;;;;;;4932898;29;20066;-82
2022/09/05 06:46:19;;;;;;;11.55;9.85;;;;;;;;;;4931831;29;20040;-82
2022/09/05 06:48:56;;;;;;;10.50;9.40;;;;;;;;;;4931450;29;20180;-86
2022/09/05 06:51:25;;;;;;;11.75;10.20;;;;;;;;;;4948567;28;20055;-82
2022/09/05 06:53:52;;;;;;;11.15;9.95;;;;;;;;;;4950190;29;20051;-81
2022/09/05 06:56:38;;;;;;;14.77;10.75;;;;;;;;;;4950690;28;20047;-82
2022/09/05 06:59:04;;;;;;;11.40;10.25;;;;;;;;;;4949266;29;20113;-82
2022/09/05 07:01:33;;;;;;;11.32;10.15;;;;;;;;;;4951123;28;20134;-82
2022/09/05 07:04:09;;;;;;;10.60;9.50;;;;;;;;;;4951487;28;20073;-82
2022/09/05 07:06:41;;;;;;;10.32;9.38;;;;;;;;;;4949919;29;20059;-82
2022/09/05 07:09:10;;;;;;;10.57;9.57;;;;;;;;;;4951421;28;20058;-82
2022/09/05 07:11:45;;;;;;;11.05;9.95;;;;;;;;;;4950837;28;20515;-82
2022/09/05 07:14:22;;;;;;;11.40;9.75;;;;;;;;;;4949797;28;20699;-82
2022/09/05 07:16:51;;;;;;;10.52;9.40;;;;;;;;;;4950773;28;20063;-82
2022/09/05 07:19:26;;;;;;;10.82;9.73;;;;;;;;;;4951326;29;20404;-82
2022/09/05 07:21:58;;;;;;;10.37;9.37;;;;;;;;;;4950117;28;20408;-82
2022/09/05 07:24:26;;;;;;;11.30;9.55;;;;;;;;;;4937990;29;20050;-82
2022/09/05 07:26:56;;;;;;;10.93;9.35;;;;;;;;;;4954279;28;20059;-82
2022/09/05 07:29:25;;;;;;;11.25;10.10;;;;;;;;;;4953859;29;20047;-82
2022/09/05 07:31:52;;;;;;;11.13;9.90;;;;;;;;;;4969705;28;20046;-82
2022/09/05 07:34:24;;;;;;;10.77;9.00;;;;;;;;;;4954903;29;20512;-84
2022/09/05 07:36:54;;;;;;;10.68;9.57;;;;;;;;;;4953601;29;20051;-82
2022/09/05 07:39:23;;;;;;;12.15;10.48;;;;;;;;;;4955196;29;20043;-86
2022/09/05 07:41:52;;;;;;;10.85;9.63;;;;;;;;;;4953183;29;20175;-87
2022/09/05 07:44:23;;;;;;;10.65;9.63;;;;;;;;;;4937223;29;20047;-85
2022/09/05 07:46:53;;;;;;;10.93;9.82;;;;;;;;;;4955236;28;20249;-83
2022/09/05 07:49:20;;;;;;;10.18;9.18;;;;;;;;;;4953918;29;20058;-83
2022/09/05 07:51:49;;;;;;;11.30;10.18;;;;;;;;;;4954940;28;20058;-83
2022/09/05 07:54:19;;;;;;;11.05;9.95;;;;;;;;;;4954420;28;20511;-85
2022/09/05 07:56:52;;;;;;;11.10;9.50;;;;;;;;;;4955218;28;20079;-83
2022/09/05 07:59:20;;;;;;;10.23;9.23;;;;;;;;;;4955360;28;20055;-85
2022/09/05 08:01:49;;;;;;;10.43;9.30;;;;;;;;;;4953706;29;20047;-83
2022/09/05 08:04:26;;;;;;;11.38;9.55;;;;;;;;;;4935352;28;20090;-83
2022/09/05 08:06:53;;;;;;;12.00;10.13;;;;;;;;;;4954318;29;20379;-83
2022/09/05 08:09:35;;;;;;;13.55;10.45;;;;;;;;;;4953146;29;20484;-83
2022/09/05 08:12:02;;;;;;;10.90;9.70;;;;;;;;;;4954236;28;20126;-83
2022/09/05 08:14:33;;;;;;;10.80;9.70;;;;;;;;;;4952799;29;20055;-83
2022/09/05 08:16:59;;;;;;;11.00;9.68;;;;;;;;;;4953110;28;20054;-83
2022/09/05 08:19:40;;;;;;;11.52;9.60;;;;;;;;;;4953889;28;20051;-83
2022/09/05 08:22:12;;;;;;;11.10;10.02;;;;;;;;;;4952736;28;20063;-83
2022/09/05 08:24:46;;;;;;;11.15;10.15;;;;;;;;;;4953612;28;20047;-83
2022/09/05 08:27:15;;;;;;;10.63;9.63;;;;;;;;;;4952382;29;20512;-83
2022/09/05 08:29:42;;;;;;;10.82;9.82;;;;;;;;;;4953450;28;20066;-83
2022/09/05 08:32:08;;;;;;;10.38;9.38;;;;;;;;;;4952237;28;20050;-83
2022/09/05 08:34:41;;;;;;;10.60;9.15;;;;;;;;;;4952084;28;20043;-83
2022/09/05 08:37:11;;;;;;;12.45;9.35;;;;;;;;;;4952460;28;20070;-83
2022/09/05 08:39:37;;;;;;;10.95;9.80;;;;;;;;;;4952321;28;20051;-83
2022/09/05 08:42:23;;;;;;;11.23;9.32;;;;;;;;;;4953654;28;20039;-84
2022/09/05 08:44:54;;;;;;;10.02;9.05;;;;;;;;;;4952419;28;20090;-83
2022/09/05 08:47:26;;;;;;;10.15;8.63;;;;;;;;;;4953257;29;20051;-83
2022/09/05 08:50:11;;;;;;;9.70;8.73;;;;;;;;;;4949942;28;20111;-83
2022/09/05 08:52:40;;;;;;;10.75;9.68;;;;;;;;;;4953088;28;20408;-83
2022/09/05 08:55:14;;;;;;;9.77;8.88;;;;;;;;;;4950335;28;20054;-83
2022/09/05 08:57:46;;;;;;;9.25;8.35;;;;;;;;;;4950956;29;20059;-84
2022/09/05 09:00:17;;;;;;;9.82;8.55;;;;;;;;;;4933578;29;20130;-83
2022/09/05 09:02:43;;;;;;;10.35;9.30;;;;;;;;;;4953530;29;20043;-83
2022/09/05 09:05:16;;;;;;;9.95;8.60;;;;;;;;;;4951423;29;20059;-83
2022/09/05 09:08:01;;;;;;;10.27;9.27;;;;;;;;;;4946515;29;20053;-83
2022/09/05 09:10:40;;;;;;;9.52;8.50;;;;;;;;;;4948212;28;20058;-83
2022/09/05 09:13:17;;;;;;;10.27;9.20;;;;;;;;;;4942002;28;20059;-83
2022/09/05 09:15:54;;;;;;;9.70;8.82;;;;;;;;;;4948032;28;20066;-83
2022/09/05 09:18:23;;;;;;;10.60;9.43;;;;;;;;;;4958041;28;20035;-83
2022/09/05 09:20:55;;;;;;;9.70;8.75;;;;;;;;;;4946752;29;20102;-83
2022/09/05 09:23:33;;;;;;;10.23;8.27;;;;;;;;;;4942681;28;20061;-83
2022/09/05 09:26:03;;;;;;;10.13;8.65;;;;;;;;;;4942928;28;20571;-83
2022/09/05 09:28:29;;;;;;;9.82;8.88;;;;;;;;;;4965378;28;20154;-83
2022/09/05 09:30:57;;;;;;;10.23;9.23;;;;;;;;;;4967151;28;20498;-83
2022/09/05 09:33:31;;;;;;;10.85;9.38;;;;;;;;;;4965153;28;20122;-83
2022/09/05 09:36:07;;;;;;;10.77;8.73;;;;;;;;;;4952756;29;20043;-83
2022/09/05 09:38:33;;;;;;;;;;;;;;;;;;4953316;29;20043;-87
2022/09/05 09:41:14;;;;;;;10.43;9.40;;;;;;;;;;4950001;28;19922;-83
2022/09/05 09:43:59;;;;;;;10.00;9.02;;;;;;;;;;4947112;29;20587;-83
2022/09/05 09:46:37;;;;;;;9.10;8.20;;;;;;;;;;4951916;28;20074;-83
2022/09/05 09:49:19;;;;;;;9.10;8.20;;;;;;;;;;4951756;28;20102;-83
2022/09/05 09:51:45;;;;;;;10.48;7.38;;;;;;;;;;4951375;28;20065;-84
2022/09/05 09:54:30;;;;;;;8.27;7.30;;;;;;;;;;4951175;28;20047;-83
2022/09/05 09:56:56;;;;;;;8.32;7.38;;;;;;;;;;4951333;28;20102;-83
2022/09/05 09:59:40;;;;;;;7.20;6.47;;;;;;;;;;4951749;28;20264;-83
2022/09/05 10:02:19;;;;;;;8.38;7.53;;;;;;;;;;4950101;28;20057;-83
2022/09/05 10:04:57;;;;;;;10.25;9.35;;;;;;;;;;4950207;28;20031;-83
2022/09/05 10:07:31;;;;;;;8.27;7.47;;;;;;;;;;4946295;28;20085;-84
2022/09/05 10:10:11;;;;;;;11.30;7.45;;;;;;;;;;4950464;28;20484;-83
2022/09/05 10:12:55;;;;;;;8.07;6.72;;;;;;;;;;4950339;28;20051;-84
2022/09/05 10:15:40;;;;;;;7.90;7.13;;;;;;;;;;4945998;29;20048;-83
2022/09/05 10:18:19;;;;;;;7.82;6.80;;;;;;;;;;4948085;29;20503;-83
2022/09/05 10:20:55;;;;;;;8.38;7.57;;;;;;;;;;4937314;29;20042;-84
2022/09/05 10:23:40;;;;;;;8.35;7.50;;;;;;;;;;4951575;29;20051;-85
2022/09/05 10:26:12;;;;;;;9.27;7.88;;;;;;;;;;4949817;28;20059;-83
2022/09/05 10:28:50;;;;;;;8.38;7.60;;;;;;;;;;4950152;28;20579;-83
2022/09/05 10:31:17;;;;;;;6.60;6.00;;;;;;;;;;4949409;28;20465;-83
2022/09/05 10:34:10;;;;;;;7.03;6.32;;;;;;;;;;4951475;29;20063;-83
2022/09/05 10:36:38;;;;;;;6.45;5.65;;;;;;;;;;4936605;28;20086;-83
2022/09/05 10:39:24;;;;;;;5.97;5.07;;;;;;;;;;4949545;28;20095;-83
2022/09/05 10:41:50;;;;;;;5.72;5.13;;;;;;;;;;4951702;28;20540;-83
2022/09/05 10:44:23;;;;;;;6.25;4.95;;;;;;;;;;4949616;28;20054;-83
2022/09/05 10:47:09;;;;;;;7.55;5.60;;;;;;;;;;4950290;28;20055;-83
2022/09/05 10:49:40;;;;;;;6.82;5.07;;;;;;;;;;4950897;28;20046;-83
2022/09/05 10:52:14;;;;;;;5.70;4.50;;;;;;;;;;4948883;29;20082;-83
2022/09/05 10:54:59;;;;;;;5.28;4.65;;;;;;;;;;4950221;28;20047;-83
2022/09/05 10:57:31;;;;;;;6.55;4.53;;;;;;;;;;4952022;28;20055;-83
2022/09/05 10:59:57;;;;;;;5.80;5.20;;;;;;;;;;4953471;29;20407;-83
2022/09/05 11:02:26;;;;;;;5.72;5.13;;;;;;;;;;4950121;29;20048;-83
2022/09/05 11:05:28;;;;;;;5.80;4.88;;;;;;;;;;4943473;29;20102;-83
2022/09/05 11:07:58;;;;;;;8.07;5.28;;;;;;;;;;4932439;29;20047;-83
2022/09/05 11:10:35;;;;;;;4.65;4.00;;;;;;;;;;4933163;29;20050;-83
2022/09/05 11:13:09;;;;;;;5.25;3.95;;;;;;;;;;4931519;29;20424;-83
2022/09/05 11:15:56;;;;;;;5.43;3.88;;;;;;;;;;4916258;29;20067;-83
2022/09/05 11:18:28;;;;;;;5.47;3.50;;;;;;;;;;4917227;29;20048;-83
2022/09/05 11:20:57;;;;;;;7.85;3.78;;;;;;;;;;4932041;29;20166;-83
2022/09/05 11:23:30;;;;;;;4.60;4.00;;;;;;;;;;4932054;29;20138;-83
2022/09/05 11:26:03;;;;;;;5.18;3.50;;;;;;;;;;4932474;29;20522;-83
2022/09/05 11:28:44;;;;;;;3.88;3.50;;;;;;;;;;4932777;29;20160;-83
2022/09/05 11:31:13;;;;;;;4.78;3.40;;;;;;;;;;4915531;29;20047;-83
2022/09/05 11:34:04;;;;;;;8.32;3.42;;;;;;;;;;4933120;29;20374;-83
2022/09/05 11:36:33;;;;;;;4.05;3.65;;;;;;;;;;4929190;29;20111;-83
2022/09/05 11:39:11;;;;;;;3.95;3.55;;;;;;;;;;4930821;29;20051;-83
2022/09/05 11:41:51;;;;;;;4.00;3.60;;;;;;;;;;4940790;29;20113;-83
2022/09/05 11:44:36;;;;;;;4.88;3.50;;;;;;;;;;4953010;28;20047;-83
2022/09/05 11:47:16;;;;;;;3.57;3.10;;;;;;;;;;4953496;29;20039;-83
2022/09/05 11:49:42;;;;;;;7.10;3.60;;;;;;;;;;4953399;28;20403;-83
2022/09/05 11:52:28;;;;;;;4.43;3.30;;;;;;;;;;4947521;29;20046;-83
2022/09/05 11:55:03;;;;;;;3.67;3.28;;;;;;;;;;4948978;29;20066;-83
2022/09/05 11:57:30;;;;;;;3.92;3.33;;;;;;;;;;4954603;28;20054;-83
2022/09/05 12:00:09;;;;;;;6.38;2.67;;;;;;;;;;4952861;28;20109;-83
2022/09/05 12:02:54;;;;;;;4.30;3.75;;;;;;;;;;4952389;29;20047;-83
2022/09/05 12:05:39;;;;;;;3.70;3.10;;;;;;;;;;4960389;28;20047;-83
2022/09/05 12:08:19;;;;;;;3.10;2.80;;;;;;;;;;4960250;28;20062;-83
2022/09/05 12:11:08;;;;;;;3.45;2.75;;;;;;;;;;4952797;29;20047;-83
2022/09/05 12:13:41;;;;;;;3.55;3.08;;;;;;;;;;4886952;29;20057;-83
2022/09/05 12:16:25;;;;;;;3.30;3.00;;;;;;;;;;4898744;29;20060;-83
2022/09/05 12:18:52;;;;;;;3.70;3.38;;;;;;;;;;4879178;29;20099;-83
2022/09/05 12:21:24;;;;;;;4.88;3.50;;;;;;;;;;4893840;29;20536;-83
2022/09/05 12:23:59;;;;;;;4.05;3.40;;;;;;;;;;4878436;29;20065;-83
2022/09/05 12:26:32;;;;;;;4.30;3.90;;;;;;;;;;4893842;29;20079;-83
2022/09/05 12:28:59;;;;;;;5.93;4.07;;;;;;;;;;4882559;29;20049;-83
2022/09/05 12:31:26;;;;;;;5.25;3.80;;;;;;;;;;4878537;29;20056;-83
2022/09/05 12:33:52;;;;;;;4.00;3.22;;;;;;;;;;4893143;29;20049;-83
2022/09/05 12:36:27;;;;;;;3.97;3.55;;;;;;;;;;4886610;29;20128;-83
2022/09/05 12:39:15;;;;;;;4.88;3.50;;;;;;;;;;4879126;29;20052;-83
2022/09/05 12:41:50;;;;;;;6.47;3.38;;;;;;;;;;4867360;29;20052;-85
2022/09/05 12:44:19;;;;;;;4.18;3.58;;;;;;;;;;4894522;29;20063;-84
2022/09/05 12:46:55;;;;;;;4.97;3.78;;;;;;;;;;4878919;29;20108;-85
2022/09/05 12:49:30;;;;;;;4.82;3.55;;;;;;;;;;4893052;29;20048;-84
2022/09/05 12:52:04;;;;;;;4.80;3.63;;;;;;;;;;4934229;29;20051;-84
2022/09/05 12:54:39;;;;;;;4.00;3.60;;;;;;;;;;4946413;28;20083;-84
2022/09/05 12:57:07;;;;;;;4.80;3.78;;;;;;;;;;4953250;28;20050;-85
2022/09/05 12:59:35;;;;;;;5.20;3.83;;;;;;;;;;4953021;28;20050;-84
2022/09/05 13:02:06;;;;;;;4.35;3.30;;;;;;;;;;4952652;28;20449;-84
2022/09/05 13:04:42;;;;;;;4.18;3.40;;;;;;;;;;4951154;29;20408;-84
2022/09/05 13:07:17;;;;;;;5.38;3.80;;;;;;;;;;4951335;29;20062;-84
2022/09/05 13:09:52;;;;;;;4.10;3.58;;;;;;;;;;4953142;28;20091;-85
2022/09/05 13:12:26;;;;;;;6.90;3.70;;;;;;;;;;4951973;28;20063;-84
2022/09/05 13:14:58;;;;;;;6.70;3.78;;;;;;;;;;4949366;29;20130;-85
2022/09/05 13:17:40;;;;;;;7.38;3.90;;;;;;;;;;4935603;29;20047;-84
2022/09/05 13:20:15;;;;;;;4.65;3.60;;;;;;;;;;4951006;28;20416;-84
2022/09/05 13:22:43;;;;;;;4.68;3.70;;;;;;;;;;4952972;29;20050;-85
2022/09/05 13:25:18;;;;;;;4.80;3.78;;;;;;;;;;4949710;28;20051;-89
2022/09/05 13:27:55;;;;;;;5.82;3.88;;;;;;;;;;4979531;28;20558;-94
2022/09/05 13:30:23;;;;;;;4.63;3.55;;;;;;;;;;4951873;29;20051;-89
2022/09/05 13:32:49;;;;;;;5.28;3.72;;;;;;;;;;4951906;28;20572;-84
2022/09/05 13:35:27;;;;;;;5.25;3.47;;;;;;;;;;4950413;29;20058;-84
2022/09/05 13:38:02;;;;;;;5.97;3.50;;;;;;;;;;4952842;28;20047;-84
2022/09/05 13:40:33;;;;;;;5.10;3.50;;;;;;;;;;4952701;29;20066;-84
2022/09/05 13:43:08;;;;;;;4.70;3.50;;;;;;;;;;4952135;28;20399;-84
2022/09/05 13:45:38;;;;;;;4.07;3.28;;;;;;;;;;4952581;28;20051;-84
2022/09/05 13:48:36;;;;;;;4.22;3.40;;;;;;;;;;4951980;28;20130;-83
2022/09/05 13:51:26;;;;;;;4.65;3.53;;;;;;;;;;4914349;29;20524;-83
2022/09/05 13:54:12;;;;;;;4.47;3.75;;;;;;;;;;4936094;29;20054;-84
2022/09/05 13:56:45;;;;;;;4.22;3.83;;;;;;;;;;4932055;28;20389;-83
2022/09/05 13:59:13;;;;;;;4.80;3.70;;;;;;;;;;4950452;28;20062;-86
2022/09/05 14:01:41;;;;;;;4.63;3.42;;;;;;;;;;4950060;28;20051;-87
2022/09/05 14:04:26;;;;;;;4.15;3.50;;;;;;;;;;4951745;28;20066;-90
2022/09/05 14:07:03;;;;;;;4.20;3.80;;;;;;;;;;4951112;28;20528;-92
2022/09/05 14:09:45;;;;;;;6.18;3.65;;;;;;;;;;4951227;29;20056;-84
2022/09/05 14:12:18;;;;;;;3.97;3.58;;;;;;;;;;4950973;29;20051;-83
2022/09/05 14:14:59;;;;;;;3.75;3.38;;;;;;;;;;4953221;29;20079;-85
2022/09/05 14:17:29;;;;;;;5.30;3.53;;;;;;;;;;4953138;29;20055;-89
2022/09/05 14:22:47;;;;;;;5.07;3.42;;;;;;;;;;4950757;29;20082;-84
2022/09/05 14:25:20;;;;;;;5.07;3.88;;;;;;;;;;4953776;28;20054;-84
2022/09/05 14:27:48;;;;;;;3.90;3.33;;;;;;;;;;4948555;28;20074;-84
2022/09/05 14:30:33;;;;;;;4.45;3.47;;;;;;;;;;4932742;29;20051;-84
2022/09/05 14:33:07;;;;;;;5.13;3.45;;;;;;;;;;4962369;28;20396;-84
2022/09/05 14:35:42;;;;;;;4.15;3.72;;;;;;;;;;4948704;28;20090;-84
2022/09/05 14:38:11;;;;;;;4.80;3.80;;;;;;;;;;4959186;28;20049;-84
2022/09/05 14:41:06;;;;;;;4.03;3.60;;;;;;;;;;4951684;28;20067;-84
2022/09/05 14:43:41;;;;;;;3.90;3.60;;;;;;;;;;4938091;29;20099;-84
2022/09/05 14:46:26;;;;;;;4.72;3.65;;;;;;;;;;4949970;28;20083;-84
2022/09/05 14:48:58;;;;;;;4.30;3.73;;;;;;;;;;4950876;29;20464;-84
2022/09/05 14:51:29;;;;;;;4.50;3.78;;;;;;;;;;4947965;29;20047;-84
2022/09/05 14:53:58;;;;;;;4.20;3.80;;;;;;;;;;4965743;28;20039;-84
2022/09/05 14:56:44;;;;;;;4.22;3.83;;;;;;;;;;4943507;29;20047;-84
2022/09/05 14:59:19;;;;;;;5.85;3.60;;;;;;;;;;4937621;28;20060;-84
2022/09/05 15:01:45;;;;;;;;;;;;;;;;;;4953014;28;20247;-82
2022/09/05 15:04:11;;;;;;;5.43;3.65;;;;;;;;;;4948776;28;20004;-84
2022/09/05 15:06:38;;;;;;;4.40;3.42;;;;;;;;;;4950065;28;20055;-89
2022/09/05 15:09:05;;;;;;;3.88;3.50;;;;;;;;;;4943498;28;20044;-84
2022/09/05 15:11:33;;;;;;;3.92;3.53;;;;;;;;;;4944809;29;20050;-84
2022/09/05 15:14:04;;;;;;;3.92;3.60;;;;;;;;;;4933407;29;20464;-84
2022/09/05 15:16:34;;;;;;;7.57;4.00;;;;;;;;;;4951443;29;20043;-84
2022/09/05 15:19:00;;;;;;;4.07;3.28;;;;;;;;;;4949154;28;20377;-84
2022/09/05 15:21:39;;;;;;;5.35;3.60;;;;;;;;;;4964143;28;20126;-84
2022/09/05 15:24:29;;;;;;;5.28;3.80;;;;;;;;;;4951020;28;20078;-85